TFM - Tactical Decision Aid (Experimental) INFO Settings

ID: Runway Winds: CIG/VIS Threshold: METAR Board: Map:

KDFW - Dallas/Fort Worth Intl

Updated at: 0417 UTC 07 Mar 2015
Latest TAF at: 0258 UTC 07 Mar 2015

TAF Board

Time0353Z07/05Z07/06Z07/07Z07/08Z07/09Z07/10Z07/11Z07/12Z07/13Z07/14Z07/15Z07/16Z07/17Z
TypeOBSPRVLPRVLPRVLPRVLPRVLPRVLPRVLPRVLPRVLPRVLPRVLPRVLPRVL
VIS10>6>6>6>6>6>6>6>6>6>6>6>6>6
CIG----------------------------
CoverFEWFEWFEWFEWFEWFEWFEWFEWFEWFEWFEWFEWFEWFEW
FltCatVFRVFRVFRVFRVFRVFRVFRVFRVFRVFRVFRVFRVFRVFR
WX----------------------------
WDir170170170170170170170170170170170170170170
WSpd96666666666666
WGst----------------------------
TAF
KDFW 070258Z 0703/0806 17006KT P6SM FEW250

METAR
KDFW 070353Z 17009KT 10SM FEW250 05/M02 A3047 RMK AO2 SLP317 T00501022
KDFW 070253Z 16008KT 10SM FEW250 06/M02 A3046 RMK AO2 SLP317 T00561017 53008

TAF/METAR Board Legend

Potential Impact
  None Marginal Slight Moderate High
Visibility (sm) >5 3≤X≤5 1≤X<3 0.5≤X<1 <0.5
Ceiling (100 ft) >30 10≤X≤30 4≤X<10 2≤X<4 <2
Wind Speed (kt) <10 10≤X<20 20≤X<30 ≥30
Wind Gust (kt) <15 15≤X<25 25≤X<35 ≥35
Weather No Wx Reported VCTS -TS,-FZRA TS,FZRA +TS,+FZRA